Time;durP1;ratioP1;P1;durP2;ratioP2;P2;SDS_P1;SDS_P2;PMS_P1;PMS_P2;Temp;Humidity;BMP_temperature;BMP_pressure;BME280_temperature;BME280_humidity;BME280_pressure;Samples;Min_cycle;Max_cycle;Signal;HPM_P1;HPM_P2
2022/05/03 00:00:05;;;;;;;8.40;4.95;;;;;;;14.27;88.60;100201.91;5002681;28;20049;-68
2022/05/03 00:02:41;;;;;;;6.43;5.30;;;;;;;14.24;89.93;100205.78;5093864;28;20043;-69
2022/05/03 00:05:11;;;;;;;6.93;5.43;;;;;;;14.22;89.64;100199.66;5091880;28;20106;-70
2022/05/03 00:08:03;;;;;;;6.35;4.97;;;;;;;14.21;88.90;100203.38;5110099;28;20028;-68
2022/05/03 00:10:39;;;;;;;5.28;4.72;;;;;;;14.20;89.90;100212.50;5110259;28;20020;-68
2022/05/03 00:13:11;;;;;;;7.95;5.65;;;;;;;14.18;89.22;100203.69;5092944;28;20468;-69
2022/05/03 00:15:40;;;;;;;6.65;5.75;;;;;;;14.11;89.97;100197.25;5112275;28;20081;-70
2022/05/03 00:18:07;;;;;;;7.35;5.18;;;;;;;14.16;89.73;100203.03;5111392;28;20050;-69
2022/05/03 00:20:35;;;;;;;7.93;5.60;;;;;;;14.16;91.21;100205.72;5109700;28;20051;-69
2022/05/03 00:23:01;;;;;;;5.68;4.90;;;;;;;14.17;91.07;100198.47;5111942;28;20087;-68
2022/05/03 00:25:27;;;;;;;6.97;5.38;;;;;;;14.17;91.09;100201.16;5093751;28;20030;-68
2022/05/03 00:27:53;;;;;;;6.47;4.97;;;;;;;14.12;91.67;100190.03;5112005;28;20377;-69
2022/05/03 00:30:19;;;;;;;5.15;4.65;;;;;;;14.17;91.56;100202.03;5093557;28;20034;-69
2022/05/03 00:32:47;;;;;;;8.25;6.03;;;;;;;14.13;91.08;100195.25;5111641;28;20028;-69
2022/05/03 00:35:12;;;;;;;5.88;5.30;;;;;;;14.20;92.17;100201.69;5111720;28;20071;-67
2022/05/03 00:37:38;;;;;;;7.00;5.50;;;;;;;14.14;93.53;100191.56;5111687;28;20511;-68
2022/05/03 00:40:05;;;;;;;7.30;5.50;;;;;;;14.14;94.43;100188.00;5111801;28;20028;-68
2022/05/03 00:42:42;;;;;;;7.20;6.28;;;;;;;14.12;94.52;100188.16;5093230;28;20483;-69
2022/05/03 00:45:11;;;;;;;6.90;5.22;;;;;;;14.20;94.72;100200.84;5111819;28;20019;-70
2022/05/03 00:47:52;;;;;;;6.97;5.75;;;;;;;14.12;94.88;100196.25;5093212;28;20122;-68
2022/05/03 00:50:33;;;;;;;7.13;5.60;;;;;;;14.19;94.05;100208.09;5109932;28;20020;-69
2022/05/03 00:53:09;;;;;;;7.40;5.43;;;;;;;14.16;94.87;100194.09;5111813;28;20020;-69
2022/05/03 00:55:34;;;;;;;6.00;5.32;;;;;;;14.18;95.13;100198.31;5108861;28;20034;-67
2022/05/03 00:58:12;;;;;;;6.57;5.47;;;;;;;14.18;94.69;100198.31;5111543;28;20076;-67
2022/05/03 01:00:52;;;;;;;7.72;5.57;;;;;;;14.16;94.59;100200.34;5108882;28;20448;-69
2022/05/03 01:03:39;;;;;;;7.50;6.07;;;;;;;14.19;94.09;100205.38;5111497;28;20761;-69
2022/05/03 01:06:13;;;;;;;7.60;6.22;;;;;;;14.18;93.72;100203.69;5111402;28;20475;-69
2022/05/03 01:08:50;;;;;;;9.88;5.88;;;;;;;14.17;93.30;100206.56;5109882;28;20180;-68
2022/05/03 01:11:22;;;;;;;9.20;6.57;;;;;;;14.00;93.28;100181.38;5093157;28;20038;-69
2022/05/03 01:14:18;;;;;;;9.55;6.47;;;;;;;14.11;93.31;100202.66;5111211;28;20498;-69
2022/05/03 01:17:03;;;;;;;7.50;6.47;;;;;;;14.16;93.11;100205.72;5108797;28;20567;-68
2022/05/03 01:20:04;;;;;;;7.45;6.22;;;;;;;14.15;92.92;100209.41;5092723;28;20039;-68
2022/05/03 01:22:42;;;;;;;8.93;6.40;;;;;;;14.16;92.26;100215.66;5109126;28;20043;-68
2022/05/03 01:25:29;;;;;;;6.28;5.60;;;;;;;14.17;92.90;100215.50;5111080;28;20073;-69
2022/05/03 01:28:18;;;;;;;9.70;6.50;;;;;;;14.11;92.93;100202.66;5111162;28;20086;-69
2022/05/03 01:30:49;;;;;;;7.13;6.25;;;;;;;14.21;92.73;100218.72;5092754;28;20051;-68
2022/05/03 01:33:24;;;;;;;8.85;5.63;;;;;;;14.15;93.57;100198.63;5111017;28;20440;-68
2022/05/03 01:35:51;;;;;;;7.78;5.97;;;;;;;14.22;93.20;100207.75;5092377;28;20035;-68
2022/05/03 01:38:28;;;;;;;6.90;6.20;;;;;;;14.24;93.57;100210.34;5111025;28;20051;-68
2022/05/03 01:41:12;;;;;;;13.02;7.47;;;;;;;14.25;93.98;100214.75;5110744;28;20020;-68
2022/05/03 01:43:55;;;;;;;9.07;6.30;;;;;;;14.25;93.66;100203.97;5090721;28;20495;-68
2022/05/03 01:46:27;;;;;;;7.85;6.40;;;;;;;14.24;93.27;100211.19;5110500;28;20037;-68
2022/05/03 01:52:16;;;;;;;;;;;;;;;14.26;92.49;100206.50;4996011;28;20180;-68
2022/05/03 01:55:14;;;;;;;11.23;6.50;;;;;;;14.24;93.15;100211.19;4998703;28;19913;-68
2022/05/03 01:57:51;;;;;;;8.38;6.30;;;;;;;14.25;93.72;100212.88;5078897;28;20051;-68
2022/05/03 02:00:18;;;;;;;8.70;6.50;;;;;;;14.17;93.79;100199.31;5110717;28;20035;-68
2022/05/03 02:03:09;;;;;;;11.15;6.50;;;;;;;14.12;92.77;100190.03;5110182;28;20028;-68
2022/05/03 02:05:58;;;;;;;7.70;6.40;;;;;;;14.09;93.23;100193.88;5091748;28;20027;-68
2022/05/03 02:08:30;;;;;;;11.23;7.60;;;;;;;14.17;94.24;100214.66;5109537;28;20361;-68
2022/05/03 02:11:16;;;;;;;9.32;6.82;;;;;;;14.13;94.72;100214.16;5110438;28;20023;-68
2022/05/03 02:14:45;;;;;;;11.25;6.82;;;;;;;14.13;96.03;100214.16;5110660;28;20456;-68
2022/05/03 02:16:53;;;;;;;11.30;8.63;;;;;;;14.09;96.85;100210.03;5090931;28;20510;-68
2022/05/03 02:19:28;;;;;;;14.02;7.80;;;;;;;14.04;96.02;100203.44;5092328;28;20035;-68
2022/05/03 02:22:29;;;;;;;10.82;7.90;;;;;;;13.99;96.26;100213.88;5090680;28;20039;-68
2022/05/03 02:25:17;;;;;;;9.23;8.27;;;;;;;13.87;96.09;100212.44;5092232;28;20567;-68
2022/05/03 02:27:48;;;;;;;9.10;7.50;;;;;;;13.87;96.51;100221.41;5092357;28;21195;-68
2022/05/03 02:30:16;;;;;;;15.73;9.13;;;;;;;13.80;96.49;100227.56;5110461;28;20102;-68
2022/05/03 02:32:45;;;;;;;12.05;7.45;;;;;;;13.74;96.27;100215.56;5110467;28;20028;-68
2022/05/03 02:35:19;;;;;;;11.52;8.02;;;;;;;13.71;95.61;100221.28;5110243;28;20506;-68
2022/05/03 02:37:49;;;;;;;16.80;9.38;;;;;;;13.66;95.99;100218.19;5110220;28;20528;-68
2022/05/03 02:40:19;;;;;;;13.95;10.02;;;;;;;13.64;96.95;100229.13;5111927;28;20121;-68
2022/05/03 02:42:45;;;;;;;15.52;9.45;;;;;;;13.59;96.85;100220.69;5114041;28;20114;-68
2022/05/03 02:45:12;;;;;;;13.52;8.98;;;;;;;13.60;97.38;100227.75;5114148;28;20539;-68
2022/05/03 02:48:06;;;;;;;9.73;8.52;;;;;;;13.56;97.28;100226.38;5111473;28;20027;-68
2022/05/03 02:51:04;;;;;;;11.18;9.18;;;;;;;13.51;97.35;100223.28;5112118;28;20107;-68
2022/05/03 02:53:55;;;;;;;12.40;9.40;;;;;;;13.49;97.84;100225.31;5094964;28;20023;-68
2022/05/03 02:56:42;;;;;;;14.15;9.57;;;;;;;13.44;98.02;100218.66;5112919;28;20542;-68
2022/05/03 03:01:47;;;;;;;11.07;9.35;;;;;;;13.43;98.86;100223.22;5112410;28;20028;-68
2022/05/03 03:03:03;;;;;;;16.25;9.65;;;;;;;13.39;99.22;100226.38;5111151;28;20059;-68
2022/05/03 03:05:30;;;;;;;12.23;10.10;;;;;;;13.37;99.55;100228.38;5011276;28;20575;-68
2022/05/03 03:08:01;;;;;;;12.55;9.45;;;;;;;13.31;99.14;100215.53;5087818;28;20960;-68
2022/05/03 03:11:00;;;;;;;12.18;8.77;;;;;;;13.33;99.61;100224.31;5113660;28;20031;-68
2022/05/03 03:13:34;;;;;;;13.75;9.55;;;;;;;13.26;99.25;100207.06;5090851;28;20092;-68
2022/05/03 03:15:59;;;;;;;18.80;11.10;;;;;;;13.16;100.00;100192.84;5113497;28;20031;-68
2022/05/03 03:18:26;;;;;;;13.68;10.00;;;;;;;13.23;99.62;100202.00;5113138;28;20038;-68
2022/05/03 03:20:58;;;;;;;15.43;9.98;;;;;;;13.29;98.74;100225.63;5113277;28;20459;-68
2022/05/03 03:23:30;;;;;;;21.30;10.82;;;;;;;13.25;98.85;100216.13;5111704;28;20515;-68
2022/05/03 03:25:58;;;;;;;13.20;10.57;;;;;;;13.15;99.58;100213.53;5111306;28;20035;-68
2022/05/03 03:28:25;;;;;;;14.40;10.25;;;;;;;13.15;98.90;100207.28;5110680;28;20047;-68
2022/05/03 03:30:52;;;;;;;17.10;13.70;;;;;;;13.11;98.87;100216.69;5112994;28;20027;-68
2022/05/03 03:33:22;;;;;;;17.00;12.07;;;;;;;13.12;98.83;100221.06;5094525;28;20016;-68
2022/05/03 03:35:49;;;;;;;21.02;12.93;;;;;;;13.15;98.15;100232.38;5094747;28;20058;-68
2022/05/03 03:38:16;;;;;;;15.93;11.50;;;;;;;13.04;98.00;100212.91;5094974;28;20059;-68
2022/05/03 03:40:45;;;;;;;14.90;11.50;;;;;;;13.04;98.34;100215.59;5112765;28;20069;-68
2022/05/03 03:43:15;;;;;;;14.75;10.80;;;;;;;13.09;99.36;100222.22;5112941;28;20023;-68
2022/05/03 03:45:41;;;;;;;13.43;11.25;;;;;;;13.11;99.31;100222.06;5112214;28;20023;-68
2022/05/03 03:48:08;;;;;;;17.35;11.35;;;;;;;13.10;98.77;100221.22;5112841;28;20066;-68
2022/05/03 03:50:34;;;;;;;12.70;9.80;;;;;;;13.11;98.18;100216.69;5112171;28;20035;-68
2022/05/03 03:53:01;;;;;;;13.43;8.75;;;;;;;13.19;97.33;100227.53;5111240;28;20051;-68
2022/05/03 03:55:27;;;;;;;9.93;7.20;;;;;;;13.20;96.38;100226.53;5092954;28;20550;-68
2022/05/03 03:57:54;;;;;;;9.77;7.03;;;;;;;13.10;96.06;100209.63;5112530;28;20484;-68
2022/05/03 04:00:20;;;;;;;7.80;6.35;;;;;;;13.17;96.04;100218.75;5112615;28;20031;-68
2022/05/03 04:02:47;;;;;;;7.47;6.45;;;;;;;13.15;96.50;100220.75;5092484;28;20080;-68
2022/05/03 04:05:19;;;;;;;9.35;7.05;;;;;;;13.05;96.67;100206.50;5102773;28;20063;-68
2022/05/03 04:07:45;;;;;;;9.00;7.32;;;;;;;13.07;97.29;100216.16;5110123;28;20028;-68
2022/05/03 04:10:10;;;;;;;12.38;8.00;;;;;;;13.12;97.86;100219.22;5111973;28;20479;-68
2022/05/03 04:12:36;;;;;;;10.15;7.32;;;;;;;13.11;98.52;100217.53;5111889;28;20045;-68
2022/05/03 04:15:02;;;;;;;9.25;7.10;;;;;;;13.22;98.82;100227.25;5112364;28;20023;-68
2022/05/03 04:17:28;;;;;;;10.18;7.57;;;;;;;13.19;98.95;100217.59;5112015;28;20055;-68
2022/05/03 04:19:53;;;;;;;9.05;6.75;;;;;;;13.20;98.23;100222.00;5111656;28;20019;-68
2022/05/03 04:22:23;;;;;;;11.02;7.88;;;;;;;13.33;97.10;100232.38;5112210;28;20036;-69
2022/05/03 04:24:50;;;;;;;10.23;7.10;;;;;;;13.36;97.18;100238.31;5109949;28;20060;-70
2022/05/03 04:27:16;;;;;;;11.23;7.32;;;;;;;13.33;97.41;100227.00;5094113;28;20026;-70
2022/05/03 04:29:41;;;;;;;9.65;7.43;;;;;;;13.36;97.85;100222.16;5111722;28;20034;-70
2022/05/03 04:32:07;;;;;;;11.50;7.60;;;;;;;13.48;97.65;100238.94;5111990;28;20020;-70
2022/05/03 04:34:33;;;;;;;10.38;7.13;;;;;;;13.42;97.53;100218.81;5111962;28;20023;-70
2022/05/03 04:36:59;;;;;;;10.10;7.57;;;;;;;13.58;98.03;100239.69;5111705;28;20027;-70
2022/05/03 04:39:24;;;;;;;8.38;7.22;;;;;;;13.63;97.50;100240.06;5093036;28;20026;-70
2022/05/03 04:41:50;;;;;;;8.48;7.25;;;;;;;13.69;96.73;100250.22;5093166;28;20023;-69
2022/05/03 04:44:15;;;;;;;7.72;6.93;;;;;;;13.74;97.07;100254.13;5093427;28;20383;-69
2022/05/03 04:46:40;;;;;;;9.10;7.82;;;;;;;13.73;96.47;100238.13;5111145;28;20034;-69
2022/05/03 04:49:06;;;;;;;12.13;8.02;;;;;;;13.82;96.21;100245.25;5111790;28;20031;-70
2022/05/03 04:51:33;;;;;;;9.50;7.93;;;;;;;13.74;95.37;100229.03;5111989;28;20038;-70
2022/05/03 04:53:58;;;;;;;11.77;7.65;;;;;;;13.96;94.93;100255.47;5111549;28;20019;-71
2022/05/03 04:56:25;;;;;;;11.00;7.57;;;;;;;14.00;94.74;100253.31;5111259;28;20383;-70
2022/05/03 04:58:55;;;;;;;9.60;7.57;;;;;;;14.06;93.77;100258.09;5092890;28;20074;-70
2022/05/03 05:01:21;;;;;;;9.60;8.23;;;;;;;13.99;93.08;100247.06;5089011;28;20150;-70
2022/05/03 05:03:47;;;;;;;14.45;10.25;;;;;;;14.08;92.66;100254.22;5090726;28;20115;-70
2022/05/03 05:06:12;;;;;;;16.95;12.68;;;;;;;14.11;92.84;100251.22;5091140;28;20114;-70
2022/05/03 05:08:42;;;;;;;17.83;11.88;;;;;;;14.21;92.19;100260.03;5091493;28;20129;-70
2022/05/03 05:11:08;;;;;;;12.57;10.35;;;;;;;14.32;92.04;100257.09;5110035;28;20027;-70
2022/05/03 05:13:34;;;;;;;11.75;8.32;;;;;;;14.39;91.41;100249.22;5109849;28;20023;-70
2022/05/03 05:16:00;;;;;;;9.77;7.85;;;;;;;14.41;90.14;100237.25;5109583;28;20379;-71
2022/05/03 05:18:27;;;;;;;13.77;7.10;;;;;;;14.51;89.71;100248.75;5109151;28;20019;-71
2022/05/03 05:20:53;;;;;;;10.50;7.20;;;;;;;14.61;89.49;100254.06;5109238;28;20020;-69
2022/05/03 05:23:18;;;;;;;10.25;7.38;;;;;;;14.62;89.54;100253.88;5109183;28;20391;-69
2022/05/03 05:25:44;;;;;;;11.43;6.90;;;;;;;14.68;88.73;100249.69;5109133;28;20507;-69
2022/05/03 05:28:09;;;;;;;11.32;7.18;;;;;;;14.72;88.89;100242.94;5109267;28;20035;-69
2022/05/03 05:30:35;;;;;;;13.18;7.80;;;;;;;14.85;88.97;100254.13;5109600;28;20039;-69
2022/05/03 05:33:00;;;;;;;10.68;7.32;;;;;;;14.95;87.90;100249.44;5090994;28;20062;-69
2022/05/03 05:35:26;;;;;;;11.80;6.55;;;;;;;14.96;86.95;100245.75;5091730;28;20063;-69
2022/05/03 05:37:51;;;;;;;12.82;7.57;;;;;;;15.09;87.72;100251.53;5091106;28;20092;-69
2022/05/03 05:40:17;;;;;;;12.50;7.35;;;;;;;15.22;87.47;100257.31;5109683;28;20092;-69
2022/05/03 05:42:42;;;;;;;12.10;7.78;;;;;;;15.30;86.97;100236.53;5109546;28;20467;-70
2022/05/03 05:45:08;;;;;;;11.20;7.22;;;;;;;15.48;86.21;100244.53;5109776;28;20062;-70
2022/05/03 05:47:34;;;;;;;9.27;6.32;;;;;;;15.57;84.72;100238.09;5109736;28;20028;-70
2022/05/03 05:49:59;;;;;;;7.75;6.05;;;;;;;15.70;82.82;100244.69;5109323;28;20079;-70
2022/05/03 05:55:09;;;;;;;9.00;5.78;;;;;;;16.01;79.94;100242.16;5107071;28;20043;-70
2022/05/03 05:57:34;;;;;;;6.43;5.45;;;;;;;16.26;78.32;100251.91;5089120;28;20027;-70
2022/05/03 06:00:00;;;;;;;9.35;5.32;;;;;;;16.49;76.95;100260.16;5107976;28;20036;-70
2022/05/03 06:02:26;;;;;;;10.35;6.70;;;;;;;16.61;73.24;100253.38;5108610;28;20476;-70
2022/05/03 06:04:51;;;;;;;11.65;6.38;;;;;;;16.70;72.34;100250.44;5108980;28;20031;-70
2022/05/03 06:07:17;;;;;;;7.22;6.30;;;;;;;16.86;71.32;100249.56;5090889;28;20024;-70
2022/05/03 06:09:43;;;;;;;11.73;6.78;;;;;;;16.87;70.17;100246.66;5108861;28;20019;-70
2022/05/03 06:12:09;;;;;;;8.18;5.78;;;;;;;16.96;69.63;100255.59;5109313;28;20035;-70
2022/05/03 06:14:36;;;;;;;9.88;5.75;;;;;;;16.90;69.34;100229.22;5110146;28;20034;-70
2022/05/03 06:17:02;;;;;;;9.05;5.57;;;;;;;17.03;68.94;100237.59;5113044;28;20031;-70
2022/05/03 06:19:27;;;;;;;9.93;5.78;;;;;;;17.14;68.92;100250.75;5094956;28;20027;-70
2022/05/03 06:21:53;;;;;;;8.90;6.25;;;;;;;17.11;68.30;100242.97;5112763;28;20053;-70
2022/05/03 06:24:18;;;;;;;8.10;5.60;;;;;;;17.11;68.32;100242.97;5112927;28;20027;-70
2022/05/03 06:26:44;;;;;;;8.43;6.20;;;;;;;17.08;68.40;100238.75;5094496;28;20061;-70
2022/05/03 06:29:10;;;;;;;11.23;5.82;;;;;;;17.14;68.79;100245.31;5112735;28;20055;-70
2022/05/03 06:31:38;;;;;;;7.35;5.70;;;;;;;17.10;68.81;100242.13;5094542;28;20103;-70
2022/05/03 06:34:05;;;;;;;6.53;5.70;;;;;;;17.18;69.33;100254.78;5112605;28;20024;-70
2022/05/03 06:36:31;;;;;;;10.68;5.15;;;;;;;17.14;69.25;100246.19;5094167;28;20027;-70
2022/05/03 06:38:56;;;;;;;7.90;5.20;;;;;;;17.15;69.62;100244.31;5113870;28;20024;-70
2022/05/03 06:41:48;;;;;;;9.63;5.30;;;;;;;17.21;69.86;100257.13;5114110;28;20475;-72
2022/05/03 06:44:14;;;;;;;8.98;5.05;;;;;;;17.17;70.59;100242.25;5108843;28;20420;-70
2022/05/03 06:46:39;;;;;;;7.80;5.63;;;;;;;17.21;71.38;100254.41;5113898;28;20038;-70
2022/05/03 06:49:04;;;;;;;6.15;5.55;;;;;;;17.20;71.48;100239.19;5114118;28;20080;-70
2022/05/03 06:51:30;;;;;;;5.68;4.68;;;;;;;17.33;71.43;100250.28;5113654;28;20108;-70
2022/05/03 06:53:56;;;;;;;8.32;5.20;;;;;;;17.40;70.84;100249.41;5095507;28;20050;-70
2022/05/03 06:56:21;;;;;;;6.63;4.50;;;;;;;17.45;69.86;100247.00;5111126;28;20046;-70
2022/05/03 06:58:47;;;;;;;8.77;5.30;;;;;;;17.53;67.80;100251.53;5113348;28;20035;-70
2022/05/03 07:01:14;;;;;;;8.38;6.15;;;;;;;17.61;67.46;100244.19;5114003;28;20065;-70
2022/05/03 07:03:40;;;;;;;10.82;5.68;;;;;;;17.75;67.00;100250.69;5113776;28;20475;-70
2022/05/03 07:06:06;;;;;;;8.35;6.03;;;;;;;17.84;66.88;100257.75;5113709;28;20031;-71
2022/05/03 07:08:32;;;;;;;8.35;4.75;;;;;;;17.96;67.08;100254.41;5113343;28;20033;-70
2022/05/03 07:10:58;;;;;;;7.47;4.95;;;;;;;18.13;66.25;100246.97;5095441;28;20110;-71
2022/05/03 07:13:24;;;;;;;18.60;7.78;;;;;;;18.31;64.46;100243.88;5113595;28;20080;-71
2022/05/03 07:15:51;;;;;;;11.63;8.57;;;;;;;18.51;64.23;100248.59;5113620;28;20024;-71
2022/05/03 07:23:45;;;;;;;6.28;4.32;;;;;;;19.44;61.24;100252.34;5113656;28;20039;-71
2022/05/03 07:26:11;;;;;;;8.88;4.72;;;;;;;19.63;59.34;100236.19;5113664;28;20023;-71
2022/05/03 07:28:36;;;;;;;6.22;3.95;;;;;;;19.83;58.49;100239.13;5113613;28;20070;-71
2022/05/03 07:31:02;;;;;;;4.82;3.63;;;;;;;20.17;57.25;100252.84;5113539;28;20038;-71
2022/05/03 07:33:27;;;;;;;10.68;4.90;;;;;;;20.41;56.48;100240.66;5113508;28;20064;-71
2022/05/03 07:35:53;;;;;;;7.65;4.95;;;;;;;20.48;55.10;100231.47;5094858;28;20103;-71
2022/05/03 07:38:18;;;;;;;10.75;4.47;;;;;;;20.72;55.60;100241.03;5095108;28;20031;-71
2022/05/03 07:40:44;;;;;;;7.47;4.63;;;;;;;20.85;56.01;100231.03;5095111;28;20032;-71
2022/05/03 07:43:09;;;;;;;11.02;5.25;;;;;;;20.97;55.33;100228.59;5113171;28;20033;-71
2022/05/03 07:45:35;;;;;;;5.65;3.95;;;;;;;21.09;54.40;100243.34;5113436;28;20030;-71
2022/05/03 07:48:00;;;;;;;5.82;3.97;;;;;;;21.04;52.10;100238.50;5113231;28;20023;-71
2022/05/03 07:50:26;;;;;;;7.38;4.18;;;;;;;21.12;51.24;100241.03;5113179;28;20027;-70
2022/05/03 07:52:51;;;;;;;5.03;3.20;;;;;;;21.19;52.18;100236.47;5113157;28;20059;-71
2022/05/03 07:55:17;;;;;;;4.43;3.08;;;;;;;21.32;51.59;100222.03;5112913;28;20102;-71
2022/05/03 07:57:43;;;;;;;6.20;3.92;;;;;;;21.66;50.67;100255.47;5112916;28;20026;-71
2022/05/03 08:00:09;;;;;;;4.68;3.45;;;;;;;21.83;50.10;100239.56;5112432;28;20035;-71
2022/05/03 08:02:34;;;;;;;5.47;4.22;;;;;;;22.01;49.88;100254.28;5094665;28;20059;-71
2022/05/03 08:05:00;;;;;;;6.78;4.78;;;;;;;22.07;50.46;100234.31;5110462;28;20651;-71
2022/05/03 08:07:25;;;;;;;5.07;3.90;;;;;;;22.35;49.86;100242.28;5112919;28;20033;-71
2022/05/03 08:09:51;;;;;;;5.80;4.18;;;;;;;22.52;48.35;100242.69;5113009;28;20031;-71
2022/05/03 08:12:17;;;;;;;5.43;3.90;;;;;;;22.62;48.73;100238.47;5113369;28;20027;-71
2022/05/03 08:14:42;;;;;;;11.15;3.90;;;;;;;22.88;47.91;100248.50;5094727;28;20030;-71
2022/05/03 08:17:08;;;;;;;4.78;3.58;;;;;;;22.98;48.32;100244.25;5113142;28;20023;-71
2022/05/03 08:19:34;;;;;;;4.15;3.35;;;;;;;23.10;48.32;100245.25;5093392;28;20471;-71
2022/05/03 08:22:00;;;;;;;3.42;3.13;;;;;;;23.20;46.28;100247.53;5103524;28;20479;-71
2022/05/03 08:24:26;;;;;;;4.68;2.92;;;;;;;23.29;46.16;100247.09;5111236;28;20056;-71
2022/05/03 08:26:53;;;;;;;7.18;2.90;;;;;;;23.34;45.45;100228.09;5092623;28;20161;-71
2022/05/03 08:29:19;;;;;;;4.93;3.00;;;;;;;23.59;44.87;100250.91;5092713;28;20084;-71
2022/05/03 08:31:45;;;;;;;5.45;3.30;;;;;;;23.66;43.82;100242.66;5108463;28;20114;-71
2022/05/03 08:34:10;;;;;;;3.92;2.70;;;;;;;23.82;44.83;100245.72;5092583;28;20031;-71
2022/05/03 08:36:36;;;;;;;6.43;3.10;;;;;;;23.84;44.04;100229.91;5110801;28;20145;-71
2022/05/03 08:42:02;;;;;;;3.50;2.35;;;;;;;24.05;41.36;100235.00;5108323;28;20038;-71
2022/05/03 08:44:31;;;;;;;2.97;2.55;;;;;;;24.08;41.58;100242.78;5102325;28;20386;-71
2022/05/03 08:46:57;;;;;;;5.78;2.72;;;;;;;24.16;41.86;100242.53;5111437;28;20016;-71
2022/05/03 08:49:25;;;;;;;3.10;2.20;;;;;;;24.24;41.63;100250.47;5110628;28;20110;-71
2022/05/03 08:51:53;;;;;;;3.13;2.58;;;;;;;24.31;41.41;100250.38;5110391;28;20072;-71
2022/05/03 08:54:20;;;;;;;4.78;2.25;;;;;;;24.34;41.17;100231.59;5110703;28;20054;-71
2022/05/03 08:56:47;;;;;;;3.67;2.50;;;;;;;24.43;40.00;100241.22;5109700;28;20027;-69
2022/05/03 08:59:13;;;;;;;2.83;2.22;;;;;;;24.53;39.97;100250.84;5109838;28;20095;-69
2022/05/03 09:01:39;;;;;;;3.33;2.30;;;;;;;24.61;39.68;100242.28;5109384;28;20475;-69
2022/05/03 09:04:06;;;;;;;2.63;2.20;;;;;;;24.70;39.93;100246.47;5109328;28;20020;-69
2022/05/03 09:06:48;;;;;;;3.50;2.05;;;;;;;24.76;38.78;100245.56;5109372;28;20023;-69
2022/05/03 09:09:16;;;;;;;3.25;2.40;;;;;;;24.75;38.82;100230.97;5107884;28;20042;-69
2022/05/03 09:11:47;;;;;;;2.38;2.17;;;;;;;24.83;38.09;100241.66;5109636;28;20066;-71
2022/05/03 09:14:39;;;;;;;3.80;2.53;;;;;;;24.84;37.42;100229.63;5108641;28;20020;-71
2022/05/03 09:17:06;;;;;;;3.50;2.33;;;;;;;24.83;38.38;100227.09;5112408;28;20051;-71
2022/05/03 09:19:32;;;;;;;4.63;2.45;;;;;;;24.85;37.30;100224.97;5111571;28;20023;-71
2022/05/03 09:24:59;;;;;;;4.75;2.25;;;;;;;25.07;36.18;100234.41;5109745;28;20490;-71
2022/05/03 09:27:26;;;;;;;2.30;2.10;;;;;;;25.03;35.86;100219.47;5109206;28;20035;-71
2022/05/03 09:30:10;;;;;;;2.42;2.00;;;;;;;25.01;35.99;100218.84;5111010;28;20395;-71
2022/05/03 09:32:35;;;;;;;;;;;;;;;25.02;35.35;100217.78;5092195;28;20589;-71
2022/05/03 09:35:02;;;;;;;3.20;1.90;;;;;;;25.00;35.77;100208.94;5110959;28;19911;-71
2022/05/03 09:37:41;;;;;;;6.60;2.05;;;;;;;25.06;35.96;100210.75;5108614;28;20375;-71
2022/05/03 09:40:12;;;;;;;4.90;2.00;;;;;;;25.08;36.54;100220.44;5091369;28;20042;-71
2022/05/03 09:42:40;;;;;;;4.25;2.30;;;;;;;25.08;36.22;100220.44;5109178;28;20031;-71
2022/05/03 09:45:08;;;;;;;2.20;2.00;;;;;;;24.97;36.43;100215.75;5109506;28;20038;-71
2022/05/03 09:47:53;;;;;;;5.55;2.65;;;;;;;24.93;35.73;100217.28;5112022;28;20057;-71
2022/05/03 09:50:37;;;;;;;4.25;1.88;;;;;;;24.96;36.35;100213.22;5091419;28;20024;-71
2022/05/03 09:53:18;;;;;;;2.13;1.90;;;;;;;25.00;36.57;100207.03;5091692;28;20103;-71
2022/05/03 09:55:47;;;;;;;6.10;2.33;;;;;;;25.05;35.97;100207.16;5090472;28;20066;-72
2022/05/03 09:58:14;;;;;;;4.95;2.55;;;;;;;25.03;35.61;100205.75;5110834;28;20345;-71
2022/05/03 10:00:42;;;;;;;4.03;2.10;;;;;;;25.09;35.30;100202.91;5110799;28;20058;-72
2022/05/03 10:03:12;;;;;;;3.53;2.03;;;;;;;25.04;35.48;100199.16;5110698;28;20023;-72
2022/05/03 10:05:40;;;;;;;3.17;1.58;;;;;;;24.98;35.75;100202.88;5092009;28;20043;-71
2022/05/03 10:08:07;;;;;;;2.30;1.90;;;;;;;24.93;35.02;100203.56;5110713;28;20032;-71
2022/05/03 10:10:33;;;;;;;2.45;1.85;;;;;;;24.83;35.78;100196.91;5092352;28;20172;-71
2022/05/03 10:12:59;;;;;;;2.72;2.17;;;;;;;24.82;35.78;100195.25;5092014;28;20480;-71
2022/05/03 10:21:29;;;;;;;2.50;2.28;;;;;;;24.76;35.38;100177.78;5110528;28;20097;-69
2022/05/03 10:24:09;;;;;;;3.88;2.22;;;;;;;24.75;35.71;100172.53;5091876;28;20492;-70
2022/05/03 10:26:56;;;;;;;4.07;2.42;;;;;;;24.84;34.83;100182.13;5090578;28;20027;-70
2022/05/03 10:29:25;;;;;;;3.25;2.80;;;;;;;24.79;35.29;100180.06;5105501;28;20024;-70
2022/05/03 10:32:06;;;;;;;2.38;1.98;;;;;;;24.81;35.04;100177.94;5091848;28;20024;-70
2022/05/03 10:34:42;;;;;;;2.67;2.35;;;;;;;24.81;35.66;100171.59;5109111;28;20062;-70
2022/05/03 10:37:12;;;;;;;3.53;2.53;;;;;;;24.78;36.13;100169.31;5110100;28;20020;-72
2022/05/03 10:39:57;;;;;;;3.05;2.08;;;;;;;24.83;36.02;100175.81;5110483;28;20039;-71
2022/05/03 10:42:25;;;;;;;3.75;2.08;;;;;;;24.81;35.04;100174.34;5109370;28;20027;-71
2022/05/03 10:44:57;;;;;;;2.53;2.10;;;;;;;24.79;35.05;100169.09;5109967;28;20043;-71
2022/05/03 10:47:48;;;;;;;2.95;2.03;;;;;;;24.73;34.53;100169.19;5110494;28;20027;-71
2022/05/03 10:50:16;;;;;;;2.47;1.80;;;;;;;24.61;33.62;100176.47;5109068;28;20391;-71
2022/05/03 10:52:54;;;;;;;3.63;2.22;;;;;;;24.52;34.81;100164.13;5110373;28;20059;-71
2022/05/03 10:55:20;;;;;;;3.63;1.90;;;;;;;24.37;35.69;100162.59;5109216;28;20046;-71
2022/05/03 10:58:23;;;;;;;5.35;1.98;;;;;;;24.22;36.90;100175.81;5092071;28;20024;-71
2022/05/03 11:01:20;;;;;;;8.48;2.45;;;;;;;24.02;39.25;100177.09;5108582;28;20131;-71
2022/05/03 11:03:48;;;;;;;5.07;2.70;;;;;;;23.88;41.80;100176.31;5109988;28;20080;-71
2022/05/03 11:06:21;;;;;;;4.72;2.97;;;;;;;23.65;46.02;100183.47;5113391;28;20027;-72
2022/05/03 11:09:08;;;;;;;6.90;3.43;;;;;;;23.22;50.21;100197.00;5112860;28;20482;-72
2022/05/03 11:11:40;;;;;;;3.90;2.40;;;;;;;22.81;47.73;100193.81;5113082;28;20038;-72
2022/05/03 11:14:11;;;;;;;4.15;2.10;;;;;;;22.50;41.84;100201.91;5112765;28;20042;-72
2022/05/03 11:16:36;;;;;;;5.28;2.13;;;;;;;22.25;45.17;100192.69;5112801;28;20112;-73
2022/05/03 11:19:10;;;;;;;12.20;4.32;;;;;;;22.12;50.05;100226.31;5112831;28;20051;-73
2022/05/03 11:21:36;;;;;;;10.93;3.88;;;;;;;21.94;50.30;100219.81;5094174;28;20052;-73
2022/05/03 11:24:02;;;;;;;9.05;3.10;;;;;;;21.68;49.81;100212.44;5112502;28;20031;-73
2022/05/03 11:26:28;;;;;;;6.03;2.58;;;;;;;21.51;49.84;100197.47;5112422;28;20543;-72
2022/05/03 11:28:57;;;;;;;4.30;2.67;;;;;;;21.20;53.04;100177.28;5112574;28;20102;-73
2022/05/03 11:31:25;;;;;;;3.47;2.13;;;;;;;21.14;53.88;100194.47;5112487;28;20027;-73
2022/05/03 11:33:58;;;;;;;5.55;1.95;;;;;;;20.98;51.25;100197.56;5112224;28;20072;-73
2022/05/03 11:36:26;;;;;;;2.65;1.88;;;;;;;20.87;53.02;100204.44;5094040;28;20035;-73
2022/05/03 11:38:53;;;;;;;5.70;2.50;;;;;;;20.75;53.30;100210.63;5112701;28;20110;-73
2022/05/03 11:41:26;;;;;;;5.10;3.47;;;;;;;20.44;59.50;100205.66;5112853;28;20390;-72
2022/05/03 11:43:51;;;;;;;3.85;3.17;;;;;;;20.33;58.12;100205.38;5109642;28;20063;-71
2022/05/03 11:46:19;;;;;;;4.07;2.90;;;;;;;20.13;55.87;100197.09;5093430;28;20056;-70
2022/05/03 11:48:49;;;;;;;3.42;2.20;;;;;;;19.88;58.86;100204.81;5093159;28;20070;-69
2022/05/03 11:56:45;;;;;;;;;;;;;;;19.45;54.37;100186.00;5112178;28;20066;-70
2022/05/03 11:59:11;;;;;;;2.85;2.22;;;;;;;19.43;51.78;100175.31;5111454;28;19976;-70
2022/05/03 12:01:36;;;;;;;1.73;1.40;;;;;;;19.52;50.16;100171.44;5111511;28;20039;-70
2022/05/03 12:04:04;;;;;;;5.13;1.67;;;;;;;19.41;49.34;100150.19;5111506;28;20050;-70
2022/05/03 12:06:43;;;;;;;2.67;1.60;;;;;;;19.35;49.06;100120.22;5111460;28;20034;-70